Leoville, Canada
Current Conditions -  °F | °C
As of 6:00 AM on Thursday 30 Oct 2014 (Local Time) from CYLJ Reporting Station
Broken Clouds Broken Clouds  
Wind Chill: 19°   Ceiling: 2000
Heat Index: 25°   Visibility: 15mi
Dew Point: 21°   Wind: 5mph
Humidity: 86%   Direction: 130°SE
Pressure: 30.38"   Gusts: NA
Location:  53.63°N, 107.55°W
Report Text: CYLJ 301200Z 13004KT 15SM BKN020 M04/M06 A3038 RMK SC5 FROIN SLP317
Loading
Personal Weather Stations






























Interactive Weather Map
Tropical Storm Tracking
New forecast layout! Learn more

10-Day Weather Forecast

Advertisements
Track Severe Weather on mobile